createdAt,value
2023-03-06T00:00:49.199Z,2.95
2023-03-06T00:03:15.502Z,3.07
2023-03-06T00:05:41.829Z,3.17
2023-03-06T00:08:08.141Z,3.19
2023-03-06T00:10:34.429Z,3.09
2023-03-06T00:13:00.752Z,3.02
2023-03-06T00:15:28.240Z,3.16
2023-03-06T00:17:54.645Z,3.10
2023-03-06T00:20:20.957Z,3.16
2023-03-06T00:22:47.254Z,3.22
2023-03-06T00:25:13.545Z,3.13
2023-03-06T00:27:40.784Z,3.10
2023-03-06T00:30:07.343Z,2.94
2023-03-06T00:32:33.712Z,3.09
2023-03-06T00:35:00.068Z,3.05
2023-03-06T00:37:26.400Z,2.98
2023-03-06T00:39:52.695Z,3.20
2023-03-06T00:42:19.016Z,2.79
2023-03-06T00:44:45.307Z,2.86
2023-03-06T00:47:11.585Z,2.85
2023-03-06T00:49:37.910Z,2.97
2023-03-06T00:52:04.216Z,2.77
2023-03-06T00:54:30.510Z,2.92
2023-03-06T00:56:56.865Z,2.90
2023-03-06T00:59:23.156Z,2.84
2023-03-06T01:01:49.470Z,2.65
2023-03-06T01:04:15.814Z,2.70
2023-03-06T01:06:42.111Z,2.75
2023-03-06T01:09:08.410Z,2.78
2023-03-06T01:11:34.718Z,2.84
2023-03-06T01:14:01.006Z,2.82
2023-03-06T01:16:27.300Z,2.66
2023-03-06T01:18:53.706Z,2.69
2023-03-06T01:21:19.996Z,2.51
2023-03-06T01:23:46.284Z,2.61
2023-03-06T01:26:12.609Z,2.47
2023-03-06T01:28:38.884Z,2.28
2023-03-06T01:31:05.170Z,1.96
2023-03-06T01:33:31.482Z,2.38
2023-03-06T01:35:57.802Z,2.00
2023-03-06T01:38:24.112Z,2.26
2023-03-06T01:40:50.445Z,2.42
2023-03-06T01:43:16.736Z,2.42
2023-03-06T01:45:43.149Z,2.66
2023-03-06T01:48:09.474Z,2.62
2023-03-06T01:50:35.793Z,2.34
2023-03-06T01:53:02.099Z,2.39
2023-03-06T01:55:28.410Z,2.44
2023-03-06T01:57:54.695Z,2.28
2023-03-06T02:00:21.003Z,2.36
2023-03-06T02:02:47.362Z,2.53
2023-03-06T02:05:13.673Z,2.40
2023-03-06T02:07:39.965Z,2.33
2023-03-06T02:10:06.270Z,2.53
2023-03-06T02:12:32.551Z,2.50
2023-03-06T02:14:58.842Z,2.65
2023-03-06T02:17:25.144Z,2.57
2023-03-06T02:19:51.438Z,2.41
2023-03-06T02:22:17.741Z,2.23
2023-03-06T02:24:44.084Z,2.27
2023-03-06T02:27:10.390Z,2.40
2023-03-06T02:29:42.810Z,2.34
2023-03-06T02:32:09.162Z,2.30
2023-03-06T02:34:35.469Z,2.31
2023-03-06T02:37:01.751Z,2.16
2023-03-06T02:39:28.062Z,2.39
2023-03-06T02:41:54.365Z,2.52
2023-03-06T02:44:20.661Z,2.59
2023-03-06T02:46:46.975Z,2.70
2023-03-06T02:49:13.261Z,2.49
2023-03-06T02:51:39.555Z,2.66
2023-03-06T02:54:05.895Z,2.55
2023-03-06T02:56:32.194Z,2.45
2023-03-06T02:58:58.491Z,2.54
2023-03-06T03:01:24.836Z,2.52
2023-03-06T03:03:51.198Z,2.41
2023-03-06T03:06:17.499Z,2.38
2023-03-06T03:08:43.833Z,2.42
2023-03-06T03:11:10.121Z,2.54
2023-03-06T03:13:36.419Z,2.47
2023-03-06T03:16:02.790Z,2.04
2023-03-06T03:18:29.096Z,2.22
2023-03-06T03:20:55.399Z,2.07
2023-03-06T03:23:21.712Z,2.29
2023-03-06T03:25:48.000Z,2.46
2023-03-06T03:28:14.289Z,2.20
2023-03-06T03:30:40.596Z,2.08
2023-03-06T03:33:06.888Z,2.06
2023-03-06T03:35:33.223Z,2.09
2023-03-06T03:37:59.551Z,2.42
2023-03-06T03:40:25.854Z,2.35
2023-03-06T03:42:52.164Z,2.62
2023-03-06T03:45:18.490Z,2.31
2023-03-06T03:47:44.780Z,2.51
2023-03-06T03:50:11.056Z,2.18
2023-03-06T03:52:37.372Z,2.51
2023-03-06T03:55:03.662Z,2.60
2023-03-06T03:57:29.956Z,2.40
2023-03-06T03:59:56.272Z,2.22
2023-03-06T04:02:22.642Z,2.27
2023-03-06T04:04:49.017Z,1.91
2023-03-06T04:07:15.350Z,2.14
2023-03-06T04:09:41.644Z,2.22
2023-03-06T04:12:07.940Z,2.26
2023-03-06T04:14:34.314Z,2.43
2023-03-06T04:17:00.604Z,2.30
2023-03-06T04:19:26.907Z,2.09
2023-03-06T04:21:53.218Z,2.44
2023-03-06T04:24:19.520Z,2.37
2023-03-06T04:26:45.826Z,2.56
2023-03-06T04:29:12.157Z,2.96
2023-03-06T04:31:38.516Z,2.99
2023-03-06T04:34:04.845Z,2.32
2023-03-06T04:36:31.152Z,2.40
2023-03-06T04:38:57.579Z,2.87
2023-03-06T04:41:23.927Z,2.84
2023-03-06T04:43:50.439Z,2.96
2023-03-06T04:46:16.731Z,2.72
2023-03-06T04:48:43.014Z,2.39
2023-03-06T04:51:09.325Z,2.59
2023-03-06T04:53:35.607Z,2.59
2023-03-06T04:56:01.900Z,2.26
2023-03-06T04:58:28.204Z,2.34
2023-03-06T05:00:54.602Z,2.16
2023-03-06T05:03:20.908Z,1.94
2023-03-06T05:05:47.216Z,2.37
2023-03-06T05:08:13.512Z,2.41
2023-03-06T05:10:39.807Z,2.05
2023-03-06T05:13:06.140Z,2.11
2023-03-06T05:15:32.439Z,2.22
2023-03-06T05:17:58.731Z,2.25
2023-03-06T05:20:25.068Z,2.33
2023-03-06T05:22:51.360Z,2.57
2023-03-06T05:25:17.646Z,2.53
2023-03-06T05:27:43.944Z,2.35
2023-03-06T05:30:10.239Z,2.10
2023-03-06T05:32:36.613Z,2.39
2023-03-06T05:35:02.943Z,2.29
2023-03-06T05:37:30.687Z,2.69
2023-03-06T05:39:57.162Z,2.72
2023-03-06T05:42:23.469Z,2.74
2023-03-06T05:44:49.773Z,2.61
2023-03-06T05:47:16.074Z,2.63
2023-03-06T05:49:42.386Z,2.81
2023-03-06T05:52:08.680Z,2.47
2023-03-06T05:54:34.989Z,2.80
2023-03-06T05:57:01.313Z,2.95
2023-03-06T05:59:27.611Z,2.96
2023-03-06T06:01:53.890Z,2.68
2023-03-06T06:04:20.203Z,2.60
2023-03-06T06:06:46.485Z,2.35
2023-03-06T06:09:13.950Z,2.24
2023-03-06T06:11:40.344Z,2.31
2023-03-06T06:14:06.637Z,2.13
2023-03-06T06:16:32.926Z,2.40
2023-03-06T06:18:59.254Z,2.31
2023-03-06T06:21:25.571Z,2.46
2023-03-06T06:23:51.862Z,2.40
2023-03-06T06:26:18.209Z,2.68
2023-03-06T06:28:44.499Z,2.38
2023-03-06T06:31:10.861Z,2.70
2023-03-06T06:33:37.202Z,2.75
2023-03-06T06:36:03.500Z,2.75
2023-03-06T06:38:29.778Z,2.91
2023-03-06T06:41:30.634Z,2.99
2023-03-06T06:43:42.339Z,2.69
2023-03-06T06:46:32.346Z,2.98
2023-03-06T06:48:54.913Z,2.86
2023-03-06T06:51:21.212Z,3.12
2023-03-06T06:53:47.491Z,3.15
2023-03-06T06:56:13.995Z,3.16
2023-03-06T06:58:40.338Z,3.07
2023-03-06T07:01:06.650Z,3.31
2023-03-06T07:03:33.042Z,3.30
2023-03-06T07:05:59.389Z,3.44
2023-03-06T07:08:25.688Z,3.49
2023-03-06T07:10:51.971Z,3.41
2023-03-06T07:13:18.271Z,3.42
2023-03-06T07:15:44.625Z,3.07
2023-03-06T07:18:10.954Z,3.04
2023-03-06T07:20:37.267Z,3.41
2023-03-06T07:23:03.560Z,3.56
2023-03-06T07:25:29.840Z,3.54
2023-03-06T07:27:56.230Z,3.68
2023-03-06T07:30:22.589Z,3.82
2023-03-06T07:32:48.894Z,3.39
2023-03-06T07:35:20.064Z,3.43
2023-03-06T07:37:47.067Z,3.87
2023-03-06T07:40:13.364Z,3.99
2023-03-06T07:42:40.780Z,4.10
2023-03-06T07:45:07.070Z,4.13
2023-03-06T07:47:33.358Z,4.01
2023-03-06T07:49:59.682Z,3.51
2023-03-06T07:52:25.979Z,3.67
2023-03-06T07:54:52.270Z,3.70
2023-03-06T07:57:18.583Z,4.05
2023-03-06T07:59:44.872Z,3.88
2023-03-06T08:02:11.188Z,3.88
2023-03-06T08:04:37.524Z,4.21
2023-03-06T08:07:03.834Z,4.09
2023-03-06T08:09:30.121Z,3.81
2023-03-06T08:11:56.498Z,3.96
2023-03-06T08:14:22.790Z,4.05
2023-03-06T08:16:49.073Z,3.69
2023-03-06T08:19:15.388Z,3.84
2023-03-06T08:21:41.685Z,3.82
2023-03-06T08:24:08.628Z,4.32
2023-03-06T08:26:35.027Z,4.48
2023-03-06T08:29:01.321Z,4.52
2023-03-06T08:31:27.709Z,4.45
2023-03-06T08:33:54.090Z,4.18
2023-03-06T08:36:20.391Z,4.59
2023-03-06T08:38:46.778Z,4.83
2023-03-06T08:41:13.097Z,4.80
2023-03-06T08:43:39.384Z,4.94
2023-03-06T08:46:05.725Z,4.79
2023-03-06T08:48:32.116Z,4.86
2023-03-06T08:50:58.441Z,4.59
2023-03-06T08:53:40.362Z,5.31
2023-03-06T08:56:08.224Z,4.84
2023-03-06T08:58:34.521Z,5.58
2023-03-06T09:01:00.970Z,5.79
2023-03-06T09:03:27.314Z,6.12
2023-03-06T09:05:53.614Z,6.39
2023-03-06T09:08:19.914Z,5.67
2023-03-06T09:10:46.249Z,5.89
2023-03-06T09:13:12.544Z,5.80
2023-03-06T09:15:38.838Z,6.41
2023-03-06T09:18:05.187Z,6.71
2023-03-06T09:20:31.508Z,6.02
2023-03-06T09:22:57.803Z,5.87
2023-03-06T09:25:24.114Z,5.79
2023-03-06T09:28:01.788Z,6.44
2023-03-06T09:30:31.699Z,6.16
2023-03-06T09:32:58.004Z,6.23
2023-03-06T09:35:24.350Z,6.13
2023-03-06T09:37:50.740Z,6.68
2023-03-06T09:40:17.043Z,6.78
2023-03-06T09:42:43.339Z,6.91
2023-03-06T09:45:09.643Z,6.82
2023-03-06T09:47:35.950Z,7.53
2023-03-06T09:50:02.248Z,7.24
2023-03-06T09:52:28.568Z,6.72
2023-03-06T09:54:54.860Z,7.07
2023-03-06T09:57:21.156Z,6.86
2023-03-06T09:59:47.458Z,7.24
2023-03-06T10:02:13.812Z,7.93
2023-03-06T10:04:40.193Z,8.15
2023-03-06T10:07:06.518Z,7.65
2023-03-06T10:09:32.805Z,7.47
2023-03-06T10:11:59.106Z,7.93
2023-03-06T10:14:25.442Z,7.72
2023-03-06T10:16:51.745Z,8.69
2023-03-06T10:19:18.043Z,8.71
2023-03-06T10:21:44.401Z,8.71
2023-03-06T10:24:10.708Z,8.67
2023-03-06T10:26:37.076Z,8.34
2023-03-06T10:29:03.440Z,7.83
2023-03-06T10:31:29.773Z,7.97
2023-03-06T10:33:56.094Z,8.60
2023-03-06T10:36:22.400Z,8.42
2023-03-06T10:38:48.850Z,8.81
2023-03-06T10:41:15.223Z,8.71
2023-03-06T10:43:41.563Z,8.60
2023-03-06T10:46:07.941Z,9.47
2023-03-06T10:48:34.454Z,9.56
2023-03-06T10:51:04.739Z,9.80
2023-03-06T10:53:36.012Z,9.13
2023-03-06T10:56:02.309Z,9.90
2023-03-06T10:58:29.003Z,9.86
2023-03-06T11:00:55.289Z,10.38
2023-03-06T11:03:21.597Z,9.19
2023-03-06T11:05:47.886Z,9.63
2023-03-06T11:08:14.683Z,9.90
2023-03-06T11:10:41.170Z,10.27
2023-03-06T11:13:07.496Z,10.24
2023-03-06T11:15:33.788Z,9.86
2023-03-06T11:18:00.120Z,9.19
2023-03-06T11:20:26.438Z,9.10
2023-03-06T11:22:52.727Z,9.21
2023-03-06T11:25:19.031Z,10.04
2023-03-06T11:27:45.326Z,10.15
2023-03-06T11:30:11.613Z,10.25
2023-03-06T11:32:37.972Z,10.31
2023-03-06T11:35:04.291Z,10.09
2023-03-06T11:37:30.587Z,10.59
2023-03-06T11:39:56.909Z,10.39
2023-03-06T11:42:23.197Z,10.02
2023-03-06T11:44:49.494Z,10.92
2023-03-06T11:47:15.846Z,11.15
2023-03-06T11:49:42.137Z,10.65
2023-03-06T11:52:08.732Z,11.03
2023-03-06T11:54:35.042Z,10.84
2023-03-06T11:57:01.324Z,11.30
2023-03-06T11:59:27.611Z,11.32
2023-03-06T12:01:53.958Z,10.08
2023-03-06T12:04:20.265Z,10.47
2023-03-06T12:06:46.550Z,10.79
2023-03-06T12:09:12.852Z,10.62
2023-03-06T12:11:39.147Z,11.38
2023-03-06T12:14:05.444Z,11.94
2023-03-06T12:16:31.795Z,12.12
2023-03-06T12:18:58.127Z,12.41
2023-03-06T12:21:24.404Z,12.40
2023-03-06T12:23:50.725Z,11.47
2023-03-06T12:26:17.039Z,11.95
2023-03-06T12:28:45.418Z,11.67
2023-03-06T12:31:12.292Z,12.00
2023-03-06T12:33:38.638Z,12.01
2023-03-06T12:36:05.001Z,12.62
2023-03-06T12:38:31.312Z,12.20
2023-03-06T12:40:57.597Z,12.37
2023-03-06T12:43:23.878Z,13.27
2023-03-06T12:45:50.259Z,13.02
2023-03-06T12:48:16.562Z,12.71
2023-03-06T12:50:42.846Z,12.43
2023-03-06T12:53:09.204Z,12.48
2023-03-06T12:55:35.475Z,12.90
2023-03-06T12:58:01.762Z,13.56
2023-03-06T13:00:28.064Z,13.22
2023-03-06T13:02:54.403Z,13.25
2023-03-06T13:05:20.707Z,13.09
2023-03-06T13:07:47.016Z,12.74
2023-03-06T13:10:13.365Z,11.72
2023-03-06T13:12:39.694Z,12.35
2023-03-06T13:15:05.984Z,12.16
2023-03-06T13:17:32.307Z,12.00
2023-03-06T13:19:58.592Z,12.28
2023-03-06T13:22:24.884Z,12.39
2023-03-06T13:24:54.896Z,12.81
2023-03-06T13:27:21.231Z,11.92
2023-03-06T13:29:47.530Z,12.66
2023-03-06T13:32:13.890Z,12.49
2023-03-06T13:34:40.208Z,12.33
2023-03-06T13:37:06.587Z,12.06
2023-03-06T13:39:32.871Z,11.21
2023-03-06T13:41:59.170Z,11.54
2023-03-06T13:44:25.490Z,12.20
2023-03-06T13:46:51.809Z,11.99
2023-03-06T13:49:18.107Z,11.97
2023-03-06T13:51:44.408Z,11.79
2023-03-06T13:54:10.733Z,12.29
2023-03-06T13:56:37.079Z,11.95
2023-03-06T13:59:03.432Z,11.47
2023-03-06T14:01:30.044Z,11.62
2023-03-06T14:03:56.364Z,11.48
2023-03-06T14:06:22.682Z,11.82
2023-03-06T14:08:48.967Z,11.41
2023-03-06T14:11:15.266Z,11.38
2023-03-06T14:13:47.071Z,11.18
2023-03-06T14:16:14.068Z,11.27
2023-03-06T14:18:40.384Z,10.73
2023-03-06T14:21:06.697Z,11.10
2023-03-06T14:23:32.980Z,11.15
2023-03-06T14:25:59.295Z,10.90
2023-03-06T14:28:25.593Z,10.90
2023-03-06T14:30:51.950Z,10.57
2023-03-06T14:33:18.370Z,10.91
2023-03-06T14:35:44.696Z,11.03
2023-03-06T14:38:10.994Z,10.65
2023-03-06T14:40:37.289Z,10.78
2023-03-06T14:43:03.597Z,10.59
2023-03-06T14:45:29.880Z,10.53
2023-03-06T14:47:56.195Z,11.02
2023-03-06T14:50:22.511Z,10.59
2023-03-06T14:52:48.808Z,10.43
2023-03-06T14:55:15.107Z,10.26
2023-03-06T14:57:41.418Z,10.34
2023-03-06T15:00:07.705Z,10.71
2023-03-06T15:02:34.041Z,10.19
2023-03-06T15:05:00.424Z,10.37
2023-03-06T15:07:26.730Z,9.75
2023-03-06T15:09:53.011Z,10.08
2023-03-06T15:12:19.318Z,10.16
2023-03-06T15:14:45.630Z,9.86
2023-03-06T15:17:11.926Z,9.89
2023-03-06T15:19:38.232Z,9.73
2023-03-06T15:22:04.519Z,9.80
2023-03-06T15:24:30.808Z,9.83
2023-03-06T15:26:57.121Z,9.65
2023-03-06T15:29:23.411Z,9.55
2023-03-06T15:31:49.707Z,9.25
2023-03-06T15:34:16.033Z,9.35
2023-03-06T15:36:42.343Z,9.21
2023-03-06T15:39:08.631Z,9.27
2023-03-06T15:41:34.949Z,9.68
2023-03-06T15:44:01.257Z,9.50
2023-03-06T15:46:27.544Z,9.37
2023-03-06T15:48:53.855Z,9.39
2023-03-06T15:51:20.189Z,9.18
2023-03-06T15:53:46.510Z,9.65
2023-03-06T15:56:12.815Z,9.40
2023-03-06T15:58:39.111Z,8.92
2023-03-06T16:01:05.402Z,8.95
2023-03-06T16:03:31.727Z,8.99
2023-03-06T16:05:58.026Z,8.97
2023-03-06T16:08:24.549Z,9.18
2023-03-06T16:10:50.888Z,9.04
2023-03-06T16:13:17.202Z,9.21
2023-03-06T16:15:43.492Z,8.69
2023-03-06T16:18:09.810Z,8.30
2023-03-06T16:20:36.100Z,8.39
2023-03-06T16:23:02.403Z,8.66
2023-03-06T16:25:28.726Z,8.01
2023-03-06T16:27:55.039Z,8.06
2023-03-06T16:30:21.329Z,8.30
2023-03-06T16:32:47.702Z,7.99
2023-03-06T16:35:14.006Z,8.10
2023-03-06T16:37:40.305Z,8.22
2023-03-06T16:40:06.609Z,8.19
2023-03-06T16:42:32.898Z,7.96
2023-03-06T16:44:59.219Z,7.86
2023-03-06T16:47:25.604Z,7.98
2023-03-06T16:49:51.917Z,7.72
2023-03-06T16:52:18.252Z,7.89
2023-03-06T16:54:44.840Z,8.01
2023-03-06T16:57:11.183Z,7.72
2023-03-06T16:59:37.474Z,7.23
2023-03-06T17:02:03.778Z,7.71
2023-03-06T17:04:30.063Z,7.46
2023-03-06T17:06:56.350Z,7.77
2023-03-06T17:09:22.649Z,7.32
2023-03-06T17:11:48.941Z,7.39
2023-03-06T17:14:15.226Z,7.40
2023-03-06T17:16:41.556Z,7.75
2023-03-06T17:19:07.835Z,7.40
2023-03-06T17:21:34.127Z,7.64
2023-03-06T17:24:00.421Z,7.65
2023-03-06T17:26:26.705Z,7.66
2023-03-06T17:28:52.985Z,7.11
2023-03-06T17:31:19.374Z,7.62
2023-03-06T17:33:45.713Z,7.08
2023-03-06T17:36:12.003Z,7.44
2023-03-06T17:38:38.323Z,7.43
2023-03-06T17:41:04.623Z,7.39
2023-03-06T17:43:30.910Z,7.54
2023-03-06T17:45:57.225Z,6.73
2023-03-06T17:48:23.503Z,6.93
2023-03-06T17:50:49.791Z,6.64
2023-03-06T17:53:16.098Z,6.79
2023-03-06T17:55:42.390Z,6.97
2023-03-06T17:58:10.248Z,6.63
2023-03-06T18:00:37.717Z,6.33
2023-03-06T18:03:04.019Z,6.63
2023-03-06T18:05:30.298Z,6.65
2023-03-06T18:07:56.616Z,6.56
2023-03-06T18:10:22.905Z,6.16
2023-03-06T18:12:49.240Z,6.26
2023-03-06T18:15:15.549Z,6.44
2023-03-06T18:17:41.840Z,6.49
2023-03-06T18:20:08.161Z,6.27
2023-03-06T18:22:34.509Z,6.27
2023-03-06T18:25:00.797Z,6.45
2023-03-06T18:27:27.099Z,6.54
2023-03-06T18:29:53.415Z,6.41
2023-03-06T18:32:19.760Z,5.72
2023-03-06T18:34:46.084Z,5.96
2023-03-06T18:37:12.475Z,5.95
2023-03-06T18:39:38.765Z,6.02
2023-03-06T18:42:05.053Z,6.30
2023-03-06T18:44:31.365Z,6.17
2023-03-06T18:46:57.697Z,6.15
2023-03-06T18:49:23.995Z,6.08
2023-03-06T18:51:50.289Z,5.94
2023-03-06T18:54:16.799Z,6.08
2023-03-06T18:56:43.310Z,6.04
2023-03-06T18:59:09.667Z,6.22
2023-03-06T19:01:35.950Z,6.02
2023-03-06T19:04:02.317Z,6.07
2023-03-06T19:06:28.696Z,5.96
2023-03-06T19:08:54.993Z,6.04
2023-03-06T19:11:21.307Z,6.08
2023-03-06T19:13:47.641Z,6.17
2023-03-06T19:16:13.960Z,5.84
2023-03-06T19:18:40.262Z,5.43
2023-03-06T19:21:06.566Z,5.77
2023-03-06T19:23:32.859Z,5.46
2023-03-06T19:25:59.151Z,5.90
2023-03-06T19:28:25.624Z,6.09
2023-03-06T19:30:51.917Z,6.03
2023-03-06T19:33:18.206Z,6.14
2023-03-06T19:35:44.542Z,6.09
2023-03-06T19:38:10.878Z,5.94
2023-03-06T19:40:37.295Z,6.17
2023-03-06T19:43:03.618Z,5.59
2023-03-06T19:45:29.918Z,5.52
2023-03-06T19:47:56.206Z,5.25
2023-03-06T19:50:22.522Z,4.94
2023-03-06T19:52:48.811Z,5.20
2023-03-06T19:55:15.092Z,5.21
2023-03-06T19:57:41.463Z,5.37
2023-03-06T20:00:07.755Z,4.99
2023-03-06T20:02:34.048Z,5.27
2023-03-06T20:05:00.366Z,5.22
2023-03-06T20:07:26.731Z,5.09
2023-03-06T20:09:53.020Z,5.52
2023-03-06T20:12:19.328Z,5.36
2023-03-06T20:14:45.622Z,5.32
2023-03-06T20:17:11.928Z,5.45
2023-03-06T20:19:38.462Z,5.65
2023-03-06T20:22:04.754Z,5.49
2023-03-06T20:24:31.057Z,5.49
2023-03-06T20:26:57.379Z,5.45
2023-03-06T20:29:23.668Z,5.06
2023-03-06T20:31:49.969Z,4.98
2023-03-06T20:34:16.327Z,5.22
2023-03-06T20:36:42.613Z,5.08
2023-03-06T20:39:08.941Z,4.97
2023-03-06T20:41:35.363Z,4.94
2023-03-06T20:44:01.656Z,5.19
2023-03-06T20:46:28.019Z,5.17
2023-03-06T20:48:54.387Z,5.17
2023-03-06T20:51:20.703Z,5.31
2023-03-06T20:53:46.989Z,5.29
2023-03-06T20:56:13.300Z,5.08
2023-03-06T20:58:39.677Z,5.36
2023-03-06T21:01:05.975Z,5.03
2023-03-06T21:03:32.297Z,5.24
2023-03-06T21:05:58.583Z,5.43
2023-03-06T21:08:24.886Z,5.61
2023-03-06T21:10:51.193Z,5.15
2023-03-06T21:13:17.488Z,4.77
2023-03-06T21:15:43.775Z,5.11
2023-03-06T21:18:10.087Z,5.14
2023-03-06T21:20:36.373Z,5.19
2023-03-06T21:23:02.674Z,5.11
2023-03-06T21:25:29.015Z,5.29
2023-03-06T21:27:55.319Z,5.43
2023-03-06T21:30:21.623Z,5.50
2023-03-06T21:32:47.934Z,5.46
2023-03-06T21:35:14.215Z,5.12
2023-03-06T21:37:40.505Z,5.12
2023-03-06T21:40:06.853Z,5.34
2023-03-06T21:42:33.144Z,5.28
2023-03-06T21:44:59.457Z,5.38
2023-03-06T21:47:25.754Z,5.62
2023-03-06T21:49:52.040Z,5.50
2023-03-06T21:52:18.326Z,5.28
2023-03-06T21:54:44.646Z,5.04
2023-03-06T21:57:10.957Z,5.07
2023-03-06T21:59:37.244Z,4.99
2023-03-06T22:02:03.550Z,4.65
2023-03-06T22:04:29.941Z,5.15
2023-03-06T22:06:56.298Z,5.15
2023-03-06T22:09:22.609Z,5.37
2023-03-06T22:11:48.918Z,5.20
2023-03-06T22:14:15.232Z,5.11
2023-03-06T22:16:41.581Z,5.31
2023-03-06T22:19:07.886Z,5.35
2023-03-06T22:21:34.178Z,5.44
2023-03-06T22:24:00.479Z,5.47
2023-03-06T22:26:26.783Z,5.20
2023-03-06T22:28:53.099Z,5.11
2023-03-06T22:31:25.009Z,5.01
2023-03-06T22:33:51.347Z,4.79
2023-03-06T22:36:17.636Z,4.80
2023-03-06T22:38:43.953Z,5.18
2023-03-06T22:41:10.235Z,4.89
2023-03-06T22:43:36.538Z,4.90
2023-03-06T22:46:03.072Z,4.90
2023-03-06T22:48:29.397Z,5.17
2023-03-06T22:50:55.695Z,4.93
2023-03-06T22:53:22.015Z,4.93
2023-03-06T22:55:48.304Z,5.00
2023-03-06T22:58:14.620Z,5.03
2023-03-06T23:00:40.941Z,5.16
2023-03-06T23:03:08.683Z,5.18
2023-03-06T23:05:34.989Z,5.16
2023-03-06T23:08:01.313Z,5.06
2023-03-06T23:10:27.616Z,5.20
2023-03-06T23:12:53.915Z,5.22
2023-03-06T23:15:20.230Z,5.29
2023-03-06T23:17:46.523Z,5.30
2023-03-06T23:20:12.820Z,5.21
2023-03-06T23:22:39.128Z,5.08
2023-03-06T23:25:05.437Z,5.18
2023-03-06T23:27:31.730Z,5.10
2023-03-06T23:29:58.037Z,4.92
2023-03-06T23:32:24.339Z,4.95
2023-03-06T23:34:50.638Z,5.02
2023-03-06T23:37:17.043Z,4.89
2023-03-06T23:39:43.346Z,5.11
2023-03-06T23:42:09.640Z,4.93
2023-03-06T23:44:35.950Z,4.90
2023-03-06T23:47:02.244Z,4.54
2023-03-06T23:49:28.527Z,4.74
2023-03-06T23:51:54.885Z,4.70
2023-03-06T23:54:21.181Z,4.78
2023-03-06T23:56:47.487Z,4.87
2023-03-06T23:59:13.784Z,4.58
